Time;durP1;ratioP1;P1;durP2;ratioP2;P2;SDS_P1;SDS_P2;PMS_P1;PMS_P2;Temp;Humidity;BMP_temperature;BMP_pressure;BME280_temperature;BME280_humidity;BME280_pressure;Samples;Min_cycle;Max_cycle;Signal;HPM_P1;HPM_P2
2023/03/24 00:01:08;;;;;;;;;5.33;5.33;;;;;;;;5058353;28;9066;-89
2023/03/24 00:03:36;;;;;;;;;6.00;4.33;;;;;;;;5065040;28;9006;-88
2023/03/24 00:06:06;;;;;;;;;7.00;4.00;;;;;;;;5065820;28;9137;-89
2023/03/24 00:08:35;;;;;;;;;5.00;4.00;;;;;;;;5068398;28;9138;-89
2023/03/24 00:11:05;;;;;;;;;3.33;3.33;;;;;;;;5060653;28;8984;-88
2023/03/24 00:13:37;;;;;;;;;4.67;4.67;;;;;;;;5051739;28;9039;-89
2023/03/24 00:16:05;;;;;;;;;1.00;1.00;;;;;;;;5065641;28;8941;-89
2023/03/24 00:18:33;;;;;;;;;4.00;4.00;;;;;;;;5072292;28;8919;-89
2023/03/24 00:21:01;;;;;;;;;4.67;4.00;;;;;;;;5061434;28;9031;-89
2023/03/24 00:23:31;;;;;;;;;4.25;4.25;;;;;;;;5067145;28;8939;-89
2023/03/24 00:26:04;;;;;;;;;3.33;3.33;;;;;;;;5062909;28;8870;-89
2023/03/24 00:28:35;;;;;;;;;4.00;4.00;;;;;;;;5078189;28;8990;-89
2023/03/24 00:31:04;;;;;;;;;3.33;3.33;;;;;;;;5063334;28;9735;-88
2023/03/24 00:33:34;;;;;;;;;3.00;2.25;;;;;;;;5073462;28;8935;-89
2023/03/24 00:36:02;;;;;;;;;4.00;4.00;;;;;;;;5070848;28;8865;-89
2023/03/24 00:38:29;;;;;;;;;3.00;3.00;;;;;;;;5071081;28;8942;-89
2023/03/24 00:40:57;;;;;;;;;3.00;3.00;;;;;;;;5070985;28;8848;-88
2023/03/24 00:43:25;;;;;;;;;3.00;3.00;;;;;;;;5068637;28;8855;-89
2023/03/24 00:46:00;;;;;;;;;4.50;3.00;;;;;;;;5066803;28;8985;-89
2023/03/24 00:48:29;;;;;;;;;1.50;1.50;;;;;;;;5069945;28;9579;-89
2023/03/24 00:50:56;;;;;;;;;3.75;3.75;;;;;;;;5063728;28;8849;-90
2023/03/24 00:53:28;;;;;;;;;2.00;0.00;;;;;;;;5071324;28;8857;-91
2023/03/24 00:55:57;;;;;;;;;2.00;2.00;;;;;;;;5055942;28;8950;-90
2023/03/24 00:58:25;;;;;;;;;3.00;1.00;;;;;;;;5074585;28;8929;-89
2023/03/24 01:00:54;;;;;;;;;3.75;3.00;;;;;;;;5064450;28;8807;-90
2023/03/24 01:03:26;;;;;;;;;2.00;2.00;;;;;;;;5072035;28;8852;-90
2023/03/24 01:05:56;;;;;;;;;1.25;1.25;;;;;;;;5072077;28;9595;-90
2023/03/24 01:08:24;;;;;;;;;2.25;2.25;;;;;;;;5071033;28;8872;-89
2023/03/24 01:10:53;;;;;;;;;1.50;1.50;;;;;;;;5067536;28;9277;-89
2023/03/24 01:13:22;;;;;;;;;1.00;1.00;;;;;;;;5070830;28;8879;-89
2023/03/24 01:15:50;;;;;;;;;1.75;1.75;;;;;;;;5070294;28;8922;-89
2023/03/24 01:18:18;;;;;;;;;2.75;2.00;;;;;;;;5066127;28;8853;-90
2023/03/24 01:20:49;;;;;;;;;2.00;2.00;;;;;;;;5069534;28;8864;-89
2023/03/24 01:23:20;;;;;;;;;1.25;1.25;;;;;;;;5062988;28;8844;-89
2023/03/24 01:25:48;;;;;;;;;1.00;1.00;;;;;;;;5071830;28;8833;-91
2023/03/24 01:28:20;;;;;;;;;2.00;2.00;;;;;;;;5060980;28;8863;-90
2023/03/24 01:30:47;;;;;;;;;1.00;1.00;;;;;;;;5064530;28;8799;-92
2023/03/24 01:33:15;;;;;;;;;2.00;2.00;;;;;;;;5058131;28;8949;-91
2023/03/24 01:35:43;;;;;;;;;1.00;1.00;;;;;;;;5063547;28;9672;-91
2023/03/24 01:38:13;;;;;;;;;0.50;0.50;;;;;;;;5070759;28;8880;-92
2023/03/24 01:40:43;;;;;;;;;1.00;1.00;;;;;;;;5072632;28;8845;-91
2023/03/24 01:43:18;;;;;;;;;1.00;1.00;;;;;;;;5073341;28;8860;-92
2023/03/24 01:46:08;;;;;;;;;2.00;2.00;;;;;;;;5073972;28;8844;-91
2023/03/24 01:48:38;;;;;;;;;1.50;1.00;;;;;;;;5066822;28;8844;-91
2023/03/24 01:51:08;;;;;;;;;2.25;1.00;;;;;;;;5059913;28;8839;-91
2023/03/24 01:53:40;;;;;;;;;2.00;2.00;;;;;;;;5059324;28;8851;-90
2023/03/24 01:56:09;;;;;;;;;1.00;1.00;;;;;;;;5067920;28;8857;-91
2023/03/24 01:58:38;;;;;;;;;1.50;1.50;;;;;;;;5070414;28;8861;-90
2023/03/24 02:01:06;;;;;;;;;1.00;1.00;;;;;;;;5060379;28;8768;-91
2023/03/24 02:03:37;;;;;;;;;1.00;1.00;;;;;;;;5062017;28;9727;-90
2023/03/24 02:06:07;;;;;;;;;1.00;1.00;;;;;;;;5066745;28;8928;-90
2023/03/24 02:08:41;;;;;;;;;1.00;1.00;;;;;;;;5062228;28;8941;-90
2023/03/24 02:11:09;;;;;;;;;0.25;0.25;;;;;;;;5054807;28;8871;-91
2023/03/24 02:13:36;;;;;;;;;1.00;1.00;;;;;;;;5062217;28;8878;-89
2023/03/24 02:16:18;;;;;;;;;0.50;0.50;;;;;;;;5053845;28;9689;-89
2023/03/24 02:18:56;;;;;;;;;0.00;0.00;;;;;;;;5071434;28;8854;-90
2023/03/24 02:21:51;;;;;;;;;0.00;0.00;;;;;;;;5051689;28;8952;-89
2023/03/24 02:24:46;;;;;;;;;0.00;0.00;;;;;;;;5047639;28;9591;-89
2023/03/24 02:27:36;;;;;;;;;0.00;0.00;;;;;;;;5066715;28;8974;-88
2023/03/24 02:30:40;;;;;;;;;0.00;0.00;;;;;;;;5072820;28;9020;-90
2023/03/24 02:33:32;;;;;;;;;0.00;0.00;;;;;;;;5063558;28;9063;-89
2023/03/24 02:36:28;;;;;;;;;0.00;0.00;;;;;;;;5063260;28;9096;-90
2023/03/24 02:39:34;;;;;;;;;0.00;0.00;;;;;;;;5033753;28;9127;-89
2023/03/24 02:42:09;;;;;;;;;0.00;0.00;;;;;;;;5068794;28;9215;-90
2023/03/24 02:44:42;;;;;;;;;0.00;0.00;;;;;;;;5067401;28;9182;-89
2023/03/24 02:47:16;;;;;;;;;0.00;0.00;;;;;;;;5068294;28;9170;-90
2023/03/24 02:49:48;;;;;;;;;1.00;0.00;;;;;;;;5052654;28;9328;-90
2023/03/24 02:52:20;;;;;;;;;0.00;0.00;;;;;;;;5051846;28;9251;-91
2023/03/24 02:54:53;;;;;;;;;0.00;0.00;;;;;;;;5070089;28;9243;-92
2023/03/24 02:57:24;;;;;;;;;0.00;0.00;;;;;;;;5065364;28;9162;-92
2023/03/24 02:59:56;;;;;;;;;1.00;0.00;;;;;;;;5076768;28;9201;-92
2023/03/24 03:02:27;;;;;;;;;0.00;0.00;;;;;;;;5059790;28;10197;-91
2023/03/24 03:04:56;;;;;;;;;0.00;0.00;;;;;;;;5066584;28;9323;-91
2023/03/24 03:07:26;;;;;;;;;0.00;0.00;;;;;;;;5058651;28;9551;-92
2023/03/24 03:09:57;;;;;;;;;1.00;0.00;;;;;;;;5070095;28;9530;-92
2023/03/24 03:12:27;;;;;;;;;0.00;0.00;;;;;;;;5069916;28;9538;-90
2023/03/24 03:14:58;;;;;;;;;0.00;0.00;;;;;;;;5055357;28;10440;-90
2023/03/24 03:17:29;;;;;;;;;0.00;0.00;;;;;;;;5069557;28;9635;-91
2023/03/24 03:20:01;;;;;;;;;0.00;0.00;;;;;;;;5059116;28;9677;-90
2023/03/24 03:22:34;;;;;;;;;0.00;0.00;;;;;;;;5051830;28;9611;-90
2023/03/24 03:25:04;;;;;;;;;1.00;1.00;;;;;;;;5062297;28;9696;-89
2023/03/24 03:27:37;;;;;;;;;0.00;0.00;;;;;;;;5076652;28;9638;-87
2023/03/24 03:30:09;;;;;;;;;0.50;0.00;;;;;;;;5068858;28;9674;-88
2023/03/24 03:32:42;;;;;;;;;0.00;0.00;;;;;;;;5064646;28;9559;-88
2023/03/24 03:35:13;;;;;;;;;0.00;0.00;;;;;;;;5056355;28;9476;-86
2023/03/24 03:37:46;;;;;;;;;1.00;0.00;;;;;;;;5066329;28;9481;-88
2023/03/24 03:40:20;;;;;;;;;0.00;0.00;;;;;;;;5063732;28;9663;-89
2023/03/24 03:42:48;;;;;;;;;0.00;0.00;;;;;;;;5060808;28;9642;-89
2023/03/24 03:45:15;;;;;;;;;0.00;0.00;;;;;;;;5051922;28;9415;-89
2023/03/24 03:47:43;;;;;;;;;0.00;0.00;;;;;;;;5065334;28;9569;-89
2023/03/24 03:50:11;;;;;;;;;0.00;0.00;;;;;;;;5072793;28;9404;-90
2023/03/24 03:52:40;;;;;;;;;0.00;0.00;;;;;;;;5068481;28;9401;-88
2023/03/24 03:55:08;;;;;;;;;0.00;0.00;;;;;;;;5074653;28;9409;-88
2023/03/24 03:57:38;;;;;;;;;0.00;0.00;;;;;;;;5068910;28;9486;-88
2023/03/24 04:00:10;;;;;;;;;0.00;0.00;;;;;;;;5061615;28;9470;-88
2023/03/24 04:02:47;;;;;;;;;0.00;0.00;;;;;;;;5070007;28;9305;-88
2023/03/24 04:05:27;;;;;;;;;0.00;0.00;;;;;;;;5073061;28;9312;-88
2023/03/24 04:08:11;;;;;;;;;0.00;0.00;;;;;;;;5061756;28;9435;-89
2023/03/24 04:11:08;;;;;;;;;0.00;0.00;;;;;;;;5072443;28;9450;-88
2023/03/24 04:13:44;;;;;;;;;0.00;0.00;;;;;;;;5042050;28;9364;-88
2023/03/24 04:16:16;;;;;;;;;0.00;0.00;;;;;;;;5069542;28;9381;-88
2023/03/24 04:18:58;;;;;;;;;0.00;0.00;;;;;;;;5070043;28;9536;-89
2023/03/24 04:21:47;;;;;;;;;0.00;0.00;;;;;;;;5066746;28;9622;-88
2023/03/24 04:24:26;;;;;;;;;0.00;0.00;;;;;;;;5074735;28;9553;-88
2023/03/24 04:26:59;;;;;;;;;0.00;0.00;;;;;;;;5068363;28;9506;-89
2023/03/24 04:29:33;;;;;;;;;0.00;0.00;;;;;;;;5064820;28;9481;-87
2023/03/24 04:32:05;;;;;;;;;0.00;0.00;;;;;;;;5069579;28;9417;-88
2023/03/24 04:34:35;;;;;;;;;0.00;0.00;;;;;;;;5069727;28;9612;-88
2023/03/24 04:37:05;;;;;;;;;0.00;0.00;;;;;;;;5069587;28;9648;-88
2023/03/24 04:39:37;;;;;;;;;0.00;0.00;;;;;;;;5060327;28;9502;-89
2023/03/24 04:42:09;;;;;;;;;0.00;0.00;;;;;;;;5062220;28;9551;-89
2023/03/24 04:44:40;;;;;;;;;0.00;0.00;;;;;;;;5068615;28;9604;-90
2023/03/24 04:47:09;;;;;;;;;0.25;0.25;;;;;;;;5070144;28;9597;-90
2023/03/24 04:49:38;;;;;;;;;0.00;0.00;;;;;;;;5060647;28;9773;-89
2023/03/24 04:52:06;;;;;;;;;0.00;0.00;;;;;;;;5065054;28;9552;-90
2023/03/24 04:54:43;;;;;;;;;1.00;0.00;;;;;;;;5070251;28;9769;-89
2023/03/24 04:57:11;;;;;;;;;0.00;0.00;;;;;;;;5077760;28;9829;-88
2023/03/24 04:59:40;;;;;;;;;0.00;0.00;;;;;;;;5071884;28;9836;-89
2023/03/24 05:02:07;;;;;;;;;1.50;0.00;;;;;;;;5069010;28;9787;-90
2023/03/24 05:04:35;;;;;;;;;1.00;1.00;;;;;;;;5061860;28;9696;-89
2023/03/24 05:07:04;;;;;;;;;0.00;0.00;;;;;;;;5069719;28;9689;-89
2023/03/24 05:09:31;;;;;;;;;0.00;0.00;;;;;;;;5070183;28;9671;-90
2023/03/24 05:11:59;;;;;;;;;0.75;0.00;;;;;;;;5071023;28;9627;-90
2023/03/24 05:14:26;;;;;;;;;1.00;1.00;;;;;;;;5068983;28;9761;-91
2023/03/24 05:16:55;;;;;;;;;0.00;0.00;;;;;;;;5064859;28;9803;-90
2023/03/24 05:19:23;;;;;;;;;0.00;0.00;;;;;;;;5057801;28;9685;-90
2023/03/24 05:21:50;;;;;;;;;4.00;1.00;;;;;;;;5067346;28;9951;-90
2023/03/24 05:24:17;;;;;;;;;0.50;0.50;;;;;;;;5061934;28;9767;-90
2023/03/24 05:26:44;;;;;;;;;0.00;0.00;;;;;;;;5072646;28;9865;-91
2023/03/24 05:29:23;;;;;;;;;1.00;1.00;;;;;;;;5075600;28;9769;-90
2023/03/24 05:31:51;;;;;;;;;0.00;0.00;;;;;;;;5074921;28;9715;-93
2023/03/24 05:34:22;;;;;;;;;1.50;0.00;;;;;;;;5074391;28;9950;-89
2023/03/24 05:36:51;;;;;;;;;0.00;0.00;;;;;;;;5072979;28;9977;-86
2023/03/24 05:39:18;;;;;;;;;0.00;0.00;;;;;;;;5071076;28;9825;-84
2023/03/24 05:41:53;;;;;;;;;1.00;1.00;;;;;;;;5063689;28;9852;-87
2023/03/24 05:44:36;;;;;;;;;0.25;0.00;;;;;;;;5072374;28;10011;-87
2023/03/24 05:47:11;;;;;;;;;0.25;0.25;;;;;;;;5070293;28;9980;-89
2023/03/24 05:49:41;;;;;;;;;2.25;0.00;;;;;;;;5067740;28;9911;-86
2023/03/24 05:52:09;;;;;;;;;1.25;1.00;;;;;;;;5070905;28;9992;-85
2023/03/24 05:54:40;;;;;;;;;1.00;1.00;;;;;;;;5074004;28;9923;-88
2023/03/24 05:57:08;;;;;;;;;1.00;1.00;;;;;;;;5071906;28;9897;-88
2023/03/24 05:59:36;;;;;;;;;1.00;1.00;;;;;;;;5071023;28;9850;-89
2023/03/24 06:02:04;;;;;;;;;0.75;0.75;;;;;;;;5061251;28;9775;-87
2023/03/24 06:04:33;;;;;;;;;0.75;0.75;;;;;;;;5053795;28;9907;-88
2023/03/24 06:07:03;;;;;;;;;2.50;0.00;;;;;;;;5071225;28;10024;-88
2023/03/24 06:09:34;;;;;;;;;2.00;1.00;;;;;;;;5071138;28;9927;-88
2023/03/24 06:12:02;;;;;;;;;1.00;1.00;;;;;;;;5057343;28;10099;-87
2023/03/24 06:14:32;;;;;;;;;0.00;0.00;;;;;;;;5069286;28;10189;-87
2023/03/24 06:17:07;;;;;;;;;0.00;0.00;;;;;;;;5071767;28;10189;-87
2023/03/24 06:19:37;;;;;;;;;0.75;0.75;;;;;;;;5071377;28;10134;-86
2023/03/24 06:22:06;;;;;;;;;0.00;0.00;;;;;;;;5071061;28;10089;-84
2023/03/24 06:24:35;;;;;;;;;0.00;0.00;;;;;;;;5063006;28;10091;-85
2023/03/24 06:27:07;;;;;;;;;0.00;0.00;;;;;;;;5057484;28;10002;-87
2023/03/24 06:29:35;;;;;;;;;0.00;0.00;;;;;;;;5059368;28;10096;-87
2023/03/24 06:32:05;;;;;;;;;1.25;1.00;;;;;;;;5051097;28;10009;-87
2023/03/24 06:34:32;;;;;;;;;0.75;0.75;;;;;;;;5069169;28;10121;-88
2023/03/24 06:37:11;;;;;;;;;1.25;0.00;;;;;;;;5070817;28;10190;-87
2023/03/24 06:39:40;;;;;;;;;0.00;0.00;;;;;;;;5070082;28;10191;-89
2023/03/24 06:42:09;;;;;;;;;0.00;0.00;;;;;;;;5056848;28;10019;-88
2023/03/24 06:44:38;;;;;;;;;0.50;0.50;;;;;;;;5063629;28;10066;-88
2023/03/24 06:47:07;;;;;;;;;0.00;0.00;;;;;;;;5055306;28;9960;-89
2023/03/24 06:49:41;;;;;;;;;0.00;0.00;;;;;;;;5068104;28;9868;-86
2023/03/24 06:52:11;;;;;;;;;1.00;1.00;;;;;;;;5054642;28;10099;-86
2023/03/24 06:54:39;;;;;;;;;0.75;0.00;;;;;;;;5065496;28;10018;-88
2023/03/24 06:57:06;;;;;;;;;0.00;0.00;;;;;;;;5056063;28;10045;-85
2023/03/24 06:59:34;;;;;;;;;2.00;1.00;;;;;;;;5064473;28;9983;-87
2023/03/24 07:02:01;;;;;;;;;1.00;1.00;;;;;;;;5064070;28;9887;-88
2023/03/24 07:04:35;;;;;;;;;1.00;1.00;;;;;;;;5058562;28;10004;-71
2023/03/24 07:07:03;;;;;;;;;1.00;1.00;;;;;;;;5050216;28;9994;-73
2023/03/24 07:09:31;;;;;;;;;1.50;1.00;;;;;;;;5056312;28;9840;-76
2023/03/24 07:11:59;;;;;;;;;1.50;1.00;;;;;;;;5052376;28;9808;-76
2023/03/24 07:14:26;;;;;;;;;1.00;1.00;;;;;;;;5060217;28;9928;-75
2023/03/24 07:16:53;;;;;;;;;2.00;2.00;;;;;;;;5061416;28;9925;-76
2023/03/24 07:19:21;;;;;;;;;4.00;2.25;;;;;;;;5057767;28;9946;-73
2023/03/24 07:21:49;;;;;;;;;0.75;0.50;;;;;;;;5057222;28;9929;-74
2023/03/24 07:24:16;;;;;;;;;0.00;0.00;;;;;;;;5076405;28;9734;-76
2023/03/24 07:26:45;;;;;;;;;2.00;1.25;;;;;;;;5065444;28;9736;-74
2023/03/24 07:29:12;;;;;;;;;2.75;2.00;;;;;;;;5061778;28;9842;-74
2023/03/24 07:31:40;;;;;;;;;1.00;1.00;;;;;;;;5079753;28;10637;-73
2023/03/24 07:34:08;;;;;;;;;1.25;0.75;;;;;;;;5092063;28;9672;-72
2023/03/24 07:36:35;;;;;;;;;0.00;0.00;;;;;;;;5079891;28;9709;-74
2023/03/24 07:39:04;;;;;;;;;2.75;1.00;;;;;;;;5079346;28;10495;-74
2023/03/24 07:41:31;;;;;;;;;2.25;0.25;;;;;;;;5078412;28;9759;-73
2023/03/24 07:44:00;;;;;;;;;2.00;0.50;;;;;;;;5080600;28;9724;-74
2023/03/24 07:46:27;;;;;;;;;0.00;0.00;;;;;;;;5090818;28;9586;-74
2023/03/24 07:48:54;;;;;;;;;3.00;0.50;;;;;;;;5080774;28;9688;-73
2023/03/24 07:51:21;;;;;;;;;1.00;1.00;;;;;;;;5074355;28;9724;-72
2023/03/24 07:53:48;;;;;;;;;1.00;1.00;;;;;;;;5076113;28;9562;-72
2023/03/24 07:56:15;;;;;;;;;0.75;0.50;;;;;;;;5074682;28;9633;-72
2023/03/24 07:58:43;;;;;;;;;0.00;0.00;;;;;;;;5085879;28;9375;-72
2023/03/24 08:01:11;;;;;;;;;0.33;0.33;;;;;;;;5081518;28;10230;-72
2023/03/24 08:03:39;;;;;;;;;1.00;1.00;;;;;;;;5064760;28;9389;-72
2023/03/24 08:06:07;;;;;;;;;0.00;0.00;;;;;;;;5069147;28;9387;-70
2023/03/24 08:08:35;;;;;;;;;1.00;1.00;;;;;;;;5069713;28;9260;-72
2023/03/24 08:11:03;;;;;;;;;1.00;1.00;;;;;;;;5069974;28;9415;-71
2023/03/24 08:14:07;;;;;;;;;1.67;1.00;;;;;;;;5070081;28;9333;-71
2023/03/24 08:16:37;;;;;;;;;1.00;1.00;;;;;;;;5062214;28;9325;-74
2023/03/24 08:19:05;;;;;;;;;0.75;0.75;;;;;;;;5066474;28;9696;-78
2023/03/24 08:21:32;;;;;;;;;1.00;1.00;;;;;;;;5069871;28;9400;-74
2023/03/24 08:23:59;;;;;;;;;2.00;0.33;;;;;;;;5070096;28;9465;-72
2023/03/24 08:26:33;;;;;;;;;2.00;1.00;;;;;;;;5070302;28;9455;-76
2023/03/24 08:29:01;;;;;;;;;4.67;0.67;;;;;;;;5055761;28;9413;-76
2023/03/24 08:31:32;;;;;;;;;2.00;2.00;;;;;;;;5069282;28;9282;-73
2023/03/24 08:34:00;;;;;;;;;0.00;0.00;;;;;;;;5061036;28;9242;-80
2023/03/24 08:36:28;;;;;;;;;1.67;0.33;;;;;;;;5059322;28;9167;-76
2023/03/24 08:38:56;;;;;;;;;2.33;1.00;;;;;;;;5056727;28;9205;-80
2023/03/24 08:41:33;;;;;;;;;2.33;0.00;;;;;;;;5070000;28;9197;-80
2023/03/24 08:44:02;;;;;;;;;2.33;1.00;;;;;;;;5069993;28;9441;-79
2023/03/24 08:46:29;;;;;;;;;1.00;1.00;;;;;;;;5057561;28;9115;-79
2023/03/24 08:48:57;;;;;;;;;1.33;1.33;;;;;;;;5059290;28;9079;-76
2023/03/24 08:51:26;;;;;;;;;2.00;0.00;;;;;;;;5061325;28;9861;-75
2023/03/24 08:53:54;;;;;;;;;0.75;0.75;;;;;;;;5069668;28;9160;-73
2023/03/24 08:56:21;;;;;;;;;1.00;1.00;;;;;;;;5063483;28;8878;-72
2023/03/24 08:58:50;;;;;;;;;1.00;1.00;;;;;;;;5060797;28;8825;-76
2023/03/24 09:01:17;;;;;;;;;1.25;1.25;;;;;;;;5061671;28;8830;-76
2023/03/24 09:03:45;;;;;;;;;1.00;1.00;;;;;;;;5070076;28;8837;-78
2023/03/24 09:06:12;;;;;;;;;1.75;0.75;;;;;;;;5058603;28;8999;-77
2023/03/24 09:08:41;;;;;;;;;1.00;1.00;;;;;;;;5058400;28;8867;-78
2023/03/24 09:11:14;;;;;;;;;1.00;1.00;;;;;;;;5065150;28;8947;-79
2023/03/24 09:13:42;;;;;;;;;2.00;2.00;;;;;;;;5070202;28;8929;-79
2023/03/24 09:16:09;;;;;;;;;3.00;1.25;;;;;;;;5074570;28;8935;-80
2023/03/24 09:18:37;;;;;;;;;1.00;1.00;;;;;;;;5070083;28;8854;-73
2023/03/24 09:21:05;;;;;;;;;1.00;1.00;;;;;;;;5067715;28;8841;-80
2023/03/24 09:23:32;;;;;;;;;2.50;1.00;;;;;;;;5061748;28;8834;-76
2023/03/24 09:26:01;;;;;;;;;1.50;1.50;;;;;;;;5055105;28;8868;-75
2023/03/24 09:28:28;;;;;;;;;0.00;0.00;;;;;;;;5068384;28;9604;-75
2023/03/24 09:30:59;;;;;;;;;0.00;0.00;;;;;;;;5076398;28;8778;-72
2023/03/24 09:33:28;;;;;;;;;3.75;0.00;;;;;;;;5087614;28;8836;-74
2023/03/24 09:35:56;;;;;;;;;1.00;1.00;;;;;;;;5077983;28;8874;-76
2023/03/24 09:38:23;;;;;;;;;1.00;1.00;;;;;;;;5087141;28;9661;-75
2023/03/24 09:40:56;;;;;;;;;0.25;0.25;;;;;;;;5076980;28;8842;-72
2023/03/24 09:43:30;;;;;;;;;3.00;1.00;;;;;;;;5088583;28;8856;-72
2023/03/24 09:46:01;;;;;;;;;0.75;0.75;;;;;;;;5075276;28;8866;-71
2023/03/24 09:48:34;;;;;;;;;3.00;1.00;;;;;;;;5088295;28;8868;-70
2023/03/24 09:51:04;;;;;;;;;1.75;1.75;;;;;;;;5088940;28;8980;-71
2023/03/24 09:53:37;;;;;;;;;2.25;0.00;;;;;;;;5088658;28;8855;-70
2023/03/24 09:56:11;;;;;;;;;2.25;1.00;;;;;;;;5077169;28;8847;-69
2023/03/24 09:58:40;;;;;;;;;2.50;1.00;;;;;;;;5087881;28;9174;-70
2023/03/24 10:01:13;;;;;;;;;1.25;1.00;;;;;;;;5076856;28;8804;-70
2023/03/24 10:03:41;;;;;;;;;3.25;1.00;;;;;;;;5080567;28;8828;-72
2023/03/24 10:06:11;;;;;;;;;1.00;0.00;;;;;;;;5069619;28;8846;-72
2023/03/24 10:08:42;;;;;;;;;1.00;1.00;;;;;;;;5081665;28;8860;-72
2023/03/24 10:11:16;;;;;;;;;1.50;1.50;;;;;;;;5088550;28;8856;-73
2023/03/24 10:17:00;;;;;;;;;0.25;0.00;;;;;;;;5157702;27;13405;-71
2023/03/24 10:19:38;;;;;;;;;2.25;0.75;;;;;;;;5142496;27;8846;-72
2023/03/24 10:22:13;;;;;;;;;1.00;1.00;;;;;;;;5142508;27;8842;-73
2023/03/24 10:24:46;;;;;;;;;0.50;0.50;;;;;;;;5146276;27;8836;-73
2023/03/24 10:27:20;;;;;;;;;1.00;0.75;;;;;;;;5142297;27;9608;-78
2023/03/24 10:29:49;;;;;;;;;2.00;0.75;;;;;;;;5134986;27;8926;-74
2023/03/24 10:32:21;;;;;;;;;2.00;0.25;;;;;;;;5113979;27;8876;-76
2023/03/24 10:34:53;;;;;;;;;2.25;1.00;;;;;;;;5110781;28;8842;-80
2023/03/24 10:37:20;;;;;;;;;2.75;0.00;;;;;;;;5108574;28;8842;-76
2023/03/24 10:39:47;;;;;;;;;0.00;0.00;;;;;;;;5104735;28;8876;-74
2023/03/24 10:42:18;;;;;;;;;0.50;0.00;;;;;;;;5102249;28;8835;-72
2023/03/24 10:44:46;;;;;;;;;1.75;1.00;;;;;;;;5103542;28;8850;-74
2023/03/24 10:47:15;;;;;;;;;1.50;0.00;;;;;;;;5104368;28;8838;-73
2023/03/24 10:49:53;;;;;;;;;0.50;0.50;;;;;;;;5103296;28;9032;-71
2023/03/24 10:52:23;;;;;;;;;0.75;0.75;;;;;;;;5101612;28;8860;-70
2023/03/24 10:54:56;;;;;;;;;0.00;0.00;;;;;;;;5099907;28;8818;-74
2023/03/24 10:57:23;;;;;;;;;0.75;0.00;;;;;;;;5099708;28;8940;-74
2023/03/24 10:59:54;;;;;;;;;2.00;1.00;;;;;;;;5104591;28;8834;-78
2023/03/24 11:02:24;;;;;;;;;1.00;0.00;;;;;;;;5106117;28;8978;-76
2023/03/24 11:04:56;;;;;;;;;0.75;0.75;;;;;;;;5109476;28;9021;-78
2023/03/24 11:07:25;;;;;;;;;2.00;0.50;;;;;;;;5105178;28;8856;-76
2023/03/24 11:10:00;;;;;;;;;1.00;1.00;;;;;;;;5096652;28;8850;-71
2023/03/24 11:12:29;;;;;;;;;1.25;1.00;;;;;;;;5108335;28;8997;-79
2023/03/24 11:15:13;;;;;;;;;0.50;0.50;;;;;;;;5107974;28;8851;-77
2023/03/24 11:17:42;;;;;;;;;2.50;1.00;;;;;;;;5103500;28;8858;-77
2023/03/24 11:20:17;;;;;;;;;3.75;0.00;;;;;;;;5094168;28;8864;-73
2023/03/24 11:22:57;;;;;;;;;3.75;1.00;;;;;;;;5095807;28;8868;-76
2023/03/24 11:25:27;;;;;;;;;0.50;0.50;;;;;;;;5097509;28;8981;-73
2023/03/24 11:28:01;;;;;;;;;4.25;1.00;;;;;;;;5079305;28;8870;-74
2023/03/24 11:30:33;;;;;;;;;0.00;0.00;;;;;;;;5080959;28;8752;-77
2023/03/24 11:33:00;;;;;;;;;2.00;2.00;;;;;;;;5080989;28;8875;-71
2023/03/24 11:35:30;;;;;;;;;0.00;0.00;;;;;;;;5081071;28;9135;-73
2023/03/24 11:37:57;;;;;;;;;0.00;0.00;;;;;;;;5084872;28;8949;-76
2023/03/24 11:40:25;;;;;;;;;3.50;0.25;;;;;;;;5080439;28;8879;-73
2023/03/24 11:42:55;;;;;;;;;0.75;0.00;;;;;;;;5086833;28;8858;-72
2023/03/24 11:45:29;;;;;;;;;0.25;0.00;;;;;;;;5074304;28;8841;-73
2023/03/24 11:47:58;;;;;;;;;0.00;0.00;;;;;;;;5089552;28;8863;-75
2023/03/24 11:50:29;;;;;;;;;0.75;0.00;;;;;;;;5090238;28;8824;-71
2023/03/24 11:53:02;;;;;;;;;0.00;0.00;;;;;;;;5089640;28;8858;-71
2023/03/24 11:55:36;;;;;;;;;1.25;0.00;;;;;;;;5089390;28;8989;-70
2023/03/24 11:58:08;;;;;;;;;0.00;0.00;;;;;;;;5081839;28;8828;-69
2023/03/24 12:00:38;;;;;;;;;0.75;0.75;;;;;;;;5083780;28;8790;-72
2023/03/24 12:03:36;;;;;;;;;0.00;0.00;;;;;;;;5068987;28;8826;-79
2023/03/24 12:06:13;;;;;;;;;0.00;0.00;;;;;;;;5043209;28;8857;-77
2023/03/24 12:08:52;;;;;;;;;1.50;0.50;;;;;;;;5068389;28;8861;-76
2023/03/24 12:11:23;;;;;;;;;0.00;0.00;;;;;;;;5068977;28;8858;-79
2023/03/24 12:13:50;;;;;;;;;1.50;0.00;;;;;;;;5068840;28;8862;-72
2023/03/24 12:16:35;;;;;;;;;0.00;0.00;;;;;;;;5068639;28;8849;-75
2023/03/24 12:19:28;;;;;;;;;0.00;0.00;;;;;;;;5068480;28;8851;-72
2023/03/24 12:22:06;;;;;;;;;0.00;0.00;;;;;;;;5041196;28;8838;-75
2023/03/24 12:24:47;;;;;;;;;3.25;0.75;;;;;;;;5060489;28;8842;-75
2023/03/24 12:27:23;;;;;;;;;0.00;0.00;;;;;;;;5065245;28;8849;-74
2023/03/24 12:29:59;;;;;;;;;3.25;2.50;;;;;;;;5068911;28;8947;-71
2023/03/24 12:32:37;;;;;;;;;1.25;1.00;;;;;;;;5057653;28;9599;-74
2023/03/24 12:35:21;;;;;;;;;1.00;1.00;;;;;;;;5063456;28;8867;-74
2023/03/24 12:38:01;;;;;;;;;0.50;0.50;;;;;;;;5060760;28;9007;-73
2023/03/24 12:40:54;;;;;;;;;1.33;1.33;;;;;;;;5065889;28;8848;-74
2023/03/24 12:43:31;;;;;;;;;0.00;0.00;;;;;;;;5058574;28;8966;-73
2023/03/24 12:45:59;;;;;;;;;3.00;1.67;;;;;;;;5067482;28;8997;-74
2023/03/24 12:48:48;;;;;;;;;2.00;1.00;;;;;;;;5067535;28;9343;-74
2023/03/24 12:51:23;;;;;;;;;3.33;1.33;;;;;;;;5065416;28;9263;-73
2023/03/24 12:54:01;;;;;;;;;1.00;1.00;;;;;;;;5070355;28;9158;-73
2023/03/24 12:56:33;;;;;;;;;2.50;0.50;;;;;;;;5071074;28;9054;-74
2023/03/24 12:59:03;;;;;;;;;0.00;0.00;;;;;;;;5071159;28;9280;-74
2023/03/24 13:01:34;;;;;;;;;0.25;0.00;;;;;;;;5068859;28;8816;-72
2023/03/24 13:04:08;;;;;;;;;2.75;0.00;;;;;;;;5065552;28;8852;-74
2023/03/24 13:06:39;;;;;;;;;1.00;0.00;;;;;;;;5057402;28;8882;-74
2023/03/24 13:09:14;;;;;;;;;0.00;0.00;;;;;;;;5057167;28;8836;-74
2023/03/24 13:11:48;;;;;;;;;0.00;0.00;;;;;;;;5067978;28;8910;-73
2023/03/24 13:14:20;;;;;;;;;0.00;0.00;;;;;;;;5067302;28;8867;-73
2023/03/24 13:16:48;;;;;;;;;1.50;1.00;;;;;;;;5054100;28;8866;-73
2023/03/24 13:19:19;;;;;;;;;0.50;0.00;;;;;;;;5048663;28;8867;-72
2023/03/24 13:21:47;;;;;;;;;2.75;0.00;;;;;;;;5062706;28;8868;-70
2023/03/24 13:24:18;;;;;;;;;1.00;1.00;;;;;;;;5067824;28;8955;-73
2023/03/24 13:26:52;;;;;;;;;1.00;0.75;;;;;;;;5066016;28;8871;-72
2023/03/24 13:29:56;;;;;;;;;2.00;0.75;;;;;;;;5067391;28;9595;-74
2023/03/24 13:32:30;;;;;;;;;1.00;1.00;;;;;;;;5053975;28;8792;-72
2023/03/24 13:35:01;;;;;;;;;1.75;0.00;;;;;;;;5056403;28;8848;-70
2023/03/24 13:37:33;;;;;;;;;1.00;1.00;;;;;;;;5066831;28;8849;-72
2023/03/24 13:40:06;;;;;;;;;2.00;1.00;;;;;;;;5062570;28;8898;-73
2023/03/24 13:42:36;;;;;;;;;0.25;0.00;;;;;;;;5060856;28;8879;-70
2023/03/24 13:45:06;;;;;;;;;1.50;0.00;;;;;;;;5065782;28;8891;-71
2023/03/24 13:47:49;;;;;;;;;0.00;0.00;;;;;;;;5067175;28;9110;-70
2023/03/24 13:50:17;;;;;;;;;0.00;0.00;;;;;;;;5057430;28;8853;-71
2023/03/24 13:52:46;;;;;;;;;0.00;0.00;;;;;;;;5065671;28;8971;-71
2023/03/24 13:55:20;;;;;;;;;0.25;0.00;;;;;;;;5063710;28;8829;-70
2023/03/24 13:57:55;;;;;;;;;0.00;0.00;;;;;;;;5067057;28;8896;-73
2023/03/24 14:00:23;;;;;;;;;2.00;0.00;;;;;;;;5059016;28;9783;-71
2023/03/24 14:02:53;;;;;;;;;0.00;0.00;;;;;;;;5066574;28;8852;-74
2023/03/24 14:05:32;;;;;;;;;0.75;0.00;;;;;;;;5060997;28;9678;-72
2023/03/24 14:08:17;;;;;;;;;0.00;0.00;;;;;;;;5047344;28;8866;-74
2023/03/24 14:10:48;;;;;;;;;0.00;0.00;;;;;;;;5065430;28;8862;-71
2023/03/24 14:13:35;;;;;;;;;0.00;0.00;;;;;;;;5067674;28;8860;-74
2023/03/24 14:16:41;;;;;;;;;0.00;0.00;;;;;;;;5054332;28;8829;-74
2023/03/24 14:19:25;;;;;;;;;0.00;0.00;;;;;;;;5056869;28;8922;-74
2023/03/24 14:21:57;;;;;;;;;0.00;0.00;;;;;;;;5065357;28;8939;-71
2023/03/24 14:24:26;;;;;;;;;0.00;0.00;;;;;;;;5067590;28;8990;-74
2023/03/24 14:26:55;;;;;;;;;0.00;0.00;;;;;;;;5066911;28;9029;-74
2023/03/24 14:29:48;;;;;;;;;0.00;0.00;;;;;;;;5066829;28;9845;-73
2023/03/24 14:32:18;;;;;;;;;0.00;0.00;;;;;;;;5055564;28;9207;-73
2023/03/24 14:34:54;;;;;;;;;0.00;0.00;;;;;;;;5067081;28;9158;-73
2023/03/24 14:37:22;;;;;;;;;0.00;0.00;;;;;;;;5067441;28;8993;-73
2023/03/24 14:39:50;;;;;;;;;0.00;0.00;;;;;;;;5067313;28;8939;-73
2023/03/24 14:42:46;;;;;;;;;1.33;0.00;;;;;;;;5067690;28;8890;-73
2023/03/24 14:45:38;;;;;;;;;0.75;0.00;;;;;;;;5062857;28;9046;-73
2023/03/24 14:48:15;;;;;;;;;0.75;0.00;;;;;;;;5051542;28;8914;-71
2023/03/24 14:50:43;;;;;;;;;1.00;1.00;;;;;;;;5069119;28;8828;-73
2023/03/24 14:53:18;;;;;;;;;0.75;0.75;;;;;;;;5061550;28;8886;-71
2023/03/24 14:55:46;;;;;;;;;3.00;1.67;;;;;;;;5064970;28;8825;-74
2023/03/24 14:58:21;;;;;;;;;7.33;3.33;;;;;;;;5055950;28;9027;-74
2023/03/24 15:00:51;;;;;;;;;0.00;0.00;;;;;;;;5066199;28;9200;-74
2023/03/24 15:03:23;;;;;;;;;0.00;0.00;;;;;;;;5070494;28;9218;-75
2023/03/24 15:05:50;;;;;;;;;0.00;0.00;;;;;;;;5053699;28;9501;-73
2023/03/24 15:08:20;;;;;;;;;1.00;0.00;;;;;;;;5062415;28;9427;-71
2023/03/24 15:10:50;;;;;;;;;0.00;0.00;;;;;;;;5052832;28;10299;-73
2023/03/24 15:13:33;;;;;;;;;0.00;0.00;;;;;;;;5063469;28;9303;-74
2023/03/24 15:16:01;;;;;;;;;0.33;0.00;;;;;;;;5058690;28;9251;-74
2023/03/24 15:18:28;;;;;;;;;0.00;0.00;;;;;;;;5068614;28;8960;-74
2023/03/24 15:20:56;;;;;;;;;0.00;0.00;;;;;;;;5058953;28;8880;-74
2023/03/24 15:23:26;;;;;;;;;0.00;0.00;;;;;;;;5069415;28;8868;-72
2023/03/24 15:25:54;;;;;;;;;1.00;0.00;;;;;;;;5070304;28;8880;-74
2023/03/24 15:28:25;;;;;;;;;0.00;0.00;;;;;;;;5066909;28;8890;-72